Terminal Aerodrome Forecast
Issued by NWS

Home | Current Version | Previous Version | Text Only | Print | Product List | Glossary On
Versions: 1 2 3 4 5 6 7 8 9 10 11 12 13 14
000
FTUS46 KSEW 180100 AAA
TAFBLI
TAF AMD
KBLI 180115Z 1801/1824 VRB03KT P6SM FEW050 SCT100 OVC200
     FM180300 VRB03KT P6SM SCT050 OVC100
      TEMPO 1803/1806 -SHRA
     FM180600 15005KT P6SM -SHRA BKN050 OVC100
     FM181000 17006KT P6SM -SHRA BKN040 OVC070
     FM181800 17007KT P6SM BKN030 BKN060=

USA.gov is the U.S. government's official web portal to all federal, state and local government web resources and services.